createdAt,value
2022-08-10T00:01:00.228Z,56.50
2022-08-10T00:06:04.609Z,57.20
2022-08-10T00:11:15.421Z,57.20
2022-08-10T00:16:22.833Z,57.50
2022-08-10T00:21:27.376Z,57.50
2022-08-10T00:27:51.681Z,58.20
2022-08-10T00:31:59.657Z,58.90
2022-08-10T00:37:04.459Z,59.80
2022-08-10T00:42:11.469Z,60.30
2022-08-10T00:47:36.257Z,61.00
2022-08-10T00:52:43.972Z,61.50
2022-08-10T00:57:54.963Z,62.00
2022-08-10T01:03:01.601Z,62.60
2022-08-10T01:08:32.834Z,63.20
2022-08-10T01:13:45.545Z,64.60
2022-08-10T01:19:02.261Z,66.40
2022-08-10T01:24:51.261Z,67.10
2022-08-10T01:30:04.411Z,68.40
2022-08-10T01:35:18.039Z,69.60
2022-08-10T01:40:28.459Z,70.90
2022-08-10T01:45:45.123Z,72.50
2022-08-10T01:50:59.560Z,73.20
2022-08-10T01:56:08.476Z,73.50
2022-08-10T02:01:20.977Z,74.30
2022-08-10T02:06:29.045Z,74.90
2022-08-10T02:11:55.613Z,74.80
2022-08-10T02:17:02.416Z,74.70
2022-08-10T02:22:36.412Z,76.20
2022-08-10T02:27:38.153Z,77.70
2022-08-10T02:32:52.676Z,78.70
2022-08-10T02:38:07.226Z,79.80
2022-08-10T02:45:20.367Z,81.50
2022-08-10T02:48:59.636Z,83.40
2022-08-10T02:54:10.376Z,84.20
2022-08-10T02:59:23.575Z,85.10
2022-08-10T03:04:55.872Z,88.00
2022-08-10T03:10:04.547Z,90.00
2022-08-10T03:15:20.578Z,90.80
2022-08-10T03:20:36.649Z,90.90
2022-08-10T03:25:53.536Z,91.70
2022-08-10T03:31:01.905Z,92.10
2022-08-10T03:36:41.826Z,92.30
2022-08-10T03:41:41.739Z,92.30
2022-08-10T03:47:01.880Z,93.80
2022-08-10T03:52:09.167Z,95.80
2022-08-10T03:57:14.979Z,96.40
2022-08-10T04:02:44.273Z,98.90
2022-08-10T04:07:48.084Z,99.80
2022-08-10T04:12:52.835Z,99.90
2022-08-10T04:18:05.876Z,99.90
2022-08-10T04:23:20.184Z,99.90
2022-08-10T04:28:26.182Z,99.90
2022-08-10T04:33:34.567Z,99.90
2022-08-10T04:38:44.154Z,99.90
2022-08-10T04:43:48.993Z,99.90
2022-08-10T04:48:59.660Z,99.90
2022-08-10T04:54:08.444Z,99.20
2022-08-10T04:59:13.993Z,97.90
2022-08-10T05:04:38.498Z,96.90
2022-08-10T05:10:01.227Z,95.60
2022-08-10T05:15:12.204Z,93.70
2022-08-10T05:20:16.994Z,92.60
2022-08-10T05:25:22.893Z,90.90
2022-08-10T05:30:27.556Z,88.90
2022-08-10T05:35:56.248Z,87.00
2022-08-10T05:40:59.106Z,86.10
2022-08-10T05:46:17.054Z,85.10
2022-08-10T05:51:26.015Z,83.70
2022-08-10T05:56:53.435Z,82.90
2022-08-10T06:02:32.709Z,81.80
2022-08-10T06:07:28.307Z,80.70
2022-08-10T06:12:55.718Z,79.50
2022-08-10T06:18:03.840Z,78.50
2022-08-10T06:23:09.144Z,77.10
2022-08-10T06:28:18.940Z,75.80
2022-08-10T06:33:26.425Z,74.00
2022-08-10T06:38:34.846Z,72.90
2022-08-10T06:43:46.913Z,72.10
2022-08-10T06:49:01.396Z,71.00
2022-08-10T06:54:10.156Z,68.70
2022-08-10T06:59:27.087Z,66.50
2022-08-10T07:04:38.038Z,63.30
2022-08-10T07:09:45.099Z,60.80
2022-08-10T07:14:53.499Z,58.30
2022-08-10T07:20:01.766Z,55.80
2022-08-10T07:25:11.844Z,54.40
2022-08-10T07:30:17.553Z,52.50
2022-08-10T07:35:24.037Z,50.80
2022-08-10T07:40:29.047Z,49.60
2022-08-10T07:45:36.843Z,48.90
2022-08-10T07:50:43.662Z,47.80
2022-08-10T07:56:02.059Z,46.60
2022-08-10T08:01:18.868Z,44.90
2022-08-10T08:06:24.103Z,44.70
2022-08-10T08:11:30.303Z,42.30
2022-08-10T08:16:38.886Z,42.70
2022-08-10T08:24:05.949Z,41.60
2022-08-10T08:27:11.947Z,40.20
2022-08-10T08:32:22.717Z,39.10
2022-08-10T08:38:30.200Z,37.70
2022-08-10T08:43:28.483Z,37.80
2022-08-10T08:49:00.097Z,36.90
2022-08-10T08:54:39.923Z,36.00
2022-08-10T09:00:05.214Z,35.40
2022-08-10T09:05:58.474Z,34.60
2022-08-10T09:11:05.657Z,34.70
2022-08-10T09:16:24.207Z,33.20
2022-08-10T09:21:43.125Z,33.30
2022-08-10T09:26:52.555Z,32.30
2022-08-10T09:35:39.246Z,32.30
2022-08-10T09:38:02.039Z,31.30
2022-08-10T09:43:25.336Z,30.90
2022-08-10T09:48:42.497Z,30.50
2022-08-10T09:54:04.381Z,29.50
2022-08-10T09:59:29.308Z,29.60
2022-08-10T10:04:59.812Z,29.30
2022-08-10T10:10:14.226Z,29.20
2022-08-10T10:15:32.671Z,28.80
2022-08-10T10:20:52.569Z,29.00
2022-08-10T10:26:18.726Z,29.30
2022-08-10T10:31:39.432Z,28.30
2022-08-10T10:36:46.840Z,27.50
2022-08-10T10:42:14.644Z,27.00
2022-08-10T10:47:50.402Z,26.40
2022-08-10T10:53:11.814Z,26.50
2022-08-10T10:58:28.651Z,26.60
2022-08-10T11:03:53.644Z,26.70
2022-08-10T11:09:06.399Z,26.70
2022-08-10T11:14:29.544Z,26.20
2022-08-10T11:20:00.531Z,26.10
2022-08-10T11:25:21.382Z,26.30
2022-08-10T11:30:40.900Z,25.80
2022-08-10T11:35:49.648Z,26.30
2022-08-10T11:42:05.819Z,25.80
2022-08-10T11:46:43.686Z,25.70
2022-08-10T11:51:56.535Z,25.20
2022-08-10T11:57:02.970Z,25.40
2022-08-10T12:02:13.915Z,25.00
2022-08-10T12:10:01.774Z,25.10
2022-08-10T12:12:59.694Z,25.30
2022-08-10T12:18:16.510Z,25.20
2022-08-10T12:23:32.277Z,24.80
2022-08-10T12:28:52.001Z,25.50
2022-08-10T12:34:17.874Z,25.40
2022-08-10T12:39:30.286Z,24.90
2022-08-10T12:44:43.830Z,24.80
2022-08-10T12:50:29.600Z,24.40
2022-08-10T12:55:25.601Z,24.30
2022-08-10T13:00:35.045Z,24.00
2022-08-10T13:06:02.573Z,23.90
2022-08-10T13:12:34.005Z,24.30
2022-08-10T13:16:39.130Z,24.10
2022-08-10T13:21:46.117Z,23.70
2022-08-10T13:27:25.080Z,24.10
2022-08-10T13:32:27.081Z,24.30
2022-08-10T13:37:35.909Z,24.40
2022-08-10T13:42:42.746Z,24.40
2022-08-10T13:47:52.115Z,24.80
2022-08-10T13:53:01.478Z,25.10
2022-08-10T13:58:06.874Z,24.50
2022-08-10T14:03:13.526Z,24.30
2022-08-10T14:08:24.163Z,24.30
2022-08-10T14:13:29.464Z,24.10
2022-08-10T14:18:35.807Z,23.80
2022-08-10T14:23:52.876Z,23.70
2022-08-10T14:29:07.562Z,24.60
2022-08-10T14:34:14.437Z,24.80
2022-08-10T14:39:26.974Z,24.70
2022-08-10T14:44:42.473Z,23.90
2022-08-10T14:49:57.089Z,24.90
2022-08-10T14:55:19.667Z,24.50
2022-08-10T15:00:33.067Z,23.80
2022-08-10T15:05:41.893Z,24.20
2022-08-10T15:10:51.109Z,24.30
2022-08-10T15:16:11.885Z,24.30
2022-08-10T15:21:18.162Z,23.80
2022-08-10T15:26:29.251Z,23.90
2022-08-10T15:31:56.839Z,23.70
2022-08-10T15:37:39.732Z,23.90
2022-08-10T15:42:41.493Z,24.00
2022-08-10T15:48:03.409Z,23.60
2022-08-10T15:53:17.039Z,23.70
2022-08-10T15:58:37.711Z,23.70
2022-08-10T16:03:54.562Z,24.00
2022-08-10T16:10:23.483Z,24.60
2022-08-10T16:14:38.650Z,24.20
2022-08-10T16:19:53.095Z,24.50
2022-08-10T16:24:58.980Z,24.60
2022-08-10T16:30:08.515Z,24.20
2022-08-10T16:35:18.727Z,24.00
2022-08-10T16:40:28.015Z,24.50
2022-08-10T16:45:40.934Z,24.60
2022-08-10T16:50:56.326Z,24.60
2022-08-10T16:56:06.148Z,24.40
2022-08-10T17:01:18.107Z,24.50
2022-08-10T17:06:30.009Z,24.80
2022-08-10T17:11:38.816Z,25.20
2022-08-10T17:16:51.877Z,26.60
2022-08-10T17:22:00.404Z,28.30
2022-08-10T17:28:04.125Z,29.40
2022-08-10T17:32:45.202Z,29.80
2022-08-10T17:37:58.078Z,30.20
2022-08-10T17:43:04.376Z,30.20
2022-08-10T17:48:10.869Z,30.70
2022-08-10T17:53:19.739Z,31.00
2022-08-10T17:58:27.139Z,31.50
2022-08-10T18:03:37.028Z,31.80
2022-08-10T18:08:47.717Z,32.30
2022-08-10T18:14:02.624Z,32.50
2022-08-10T18:19:12.656Z,32.80
2022-08-10T18:24:21.985Z,33.20
2022-08-10T18:29:29.912Z,33.60
2022-08-10T18:34:39.968Z,34.10
2022-08-10T18:39:50.583Z,34.60
2022-08-10T18:45:02.390Z,34.90
2022-08-10T18:50:14.089Z,35.30
2022-08-10T18:55:27.742Z,35.60
2022-08-10T19:01:07.098Z,36.00
2022-08-10T19:06:38.085Z,36.40
2022-08-10T19:12:06.175Z,37.10
2022-08-10T19:18:03.020Z,37.60
2022-08-10T19:23:28.006Z,38.00
2022-08-10T19:28:47.426Z,38.70
2022-08-10T19:34:12.769Z,39.20
2022-08-10T19:39:28.783Z,39.50
2022-08-10T19:44:46.141Z,39.90
2022-08-10T19:50:01.256Z,40.30
2022-08-10T19:55:18.865Z,40.90
2022-08-10T20:00:36.541Z,41.30
2022-08-10T20:06:19.169Z,41.40
2022-08-10T20:11:45.156Z,42.00
2022-08-10T20:16:59.949Z,42.50
2022-08-10T20:22:13.774Z,43.10
2022-08-10T20:27:58.631Z,43.10
2022-08-10T20:33:01.958Z,43.80
2022-08-10T20:38:12.167Z,44.50
2022-08-10T20:43:27.565Z,44.50
2022-08-10T20:48:44.079Z,44.80
2022-08-10T20:53:56.369Z,45.10
2022-08-10T20:59:33.425Z,45.40
2022-08-10T21:04:53.035Z,45.70
2022-08-10T21:10:16.286Z,46.00
2022-08-10T21:15:55.617Z,46.00
2022-08-10T21:21:16.539Z,46.00
2022-08-10T21:26:33.630Z,46.20
2022-08-10T21:32:15.425Z,46.70
2022-08-10T21:37:56.710Z,46.70
2022-08-10T21:43:32.175Z,46.70
2022-08-10T21:49:23.076Z,47.00
2022-08-10T21:54:57.459Z,47.50
2022-08-10T22:00:27.348Z,47.90
2022-08-10T22:05:57.820Z,48.10
2022-08-10T22:11:22.901Z,48.60
2022-08-10T22:17:01.127Z,48.70
2022-08-10T22:22:31.215Z,49.70
2022-08-10T22:27:57.616Z,50.20
2022-08-10T22:33:44.670Z,50.80
2022-08-10T22:40:10.134Z,50.30
2022-08-10T22:45:15.156Z,50.00
2022-08-10T22:50:28.271Z,49.70
2022-08-10T22:55:57.584Z,50.30
2022-08-10T23:01:11.803Z,50.30
2022-08-10T23:06:22.156Z,50.00
2022-08-10T23:11:33.865Z,49.90
2022-08-10T23:17:06.043Z,50.10
2022-08-10T23:22:15.681Z,50.50
2022-08-10T23:27:39.328Z,50.70
2022-08-10T23:32:48.916Z,51.40
2022-08-10T23:37:57.093Z,51.60
2022-08-10T23:43:05.550Z,51.20
2022-08-10T23:48:11.463Z,52.40
2022-08-10T23:53:26.220Z,52.70
2022-08-10T23:58:42.083Z,53.30
